Terminal Aerodrome Forecast
Issued by NWS Indianapolis, IN

Home | Current Version | Previous Version | Text Only | Print | Product List | Glossary On
Versions: 1 2 3 4 5 6 7 8 9 10 11 12 13 14 15 16 17 18 19 20 21 22 23 24 25 26
000
FTUS43 KIND 281720
TAFIND
TAF
KIND 281720Z 2818/2924 14008KT P6SM VCSH BKN080
     FM282200 10007KT 5SM SHRA BR VCTS OVC050CB
     FM290400 16006KT 4SM SHRA BR VCTS OVC010CB
     FM291200 09005KT 4SM -SHRA BR OVC010
     FM291700 14007KT 4SM BR VCSH OVC020
     FM292000 14007KT P6SM OVC040=

USA.gov is the U.S. government's official web portal to all federal, state and local government web resources and services.